sensor_id;sensor_type;location;lat;lon;timestamp;P1;durP1;ratioP1;P2;durP2;ratioP2
15651;SDS011;7926;43.576;1.458;2022-08-21T00:00:09;0.60;;;0.60;;
15651;SDS011;7926;43.576;1.458;2022-08-21T00:02:36;0.60;;;0.60;;
15651;SDS011;7926;43.576;1.458;2022-08-21T00:05:04;0.60;;;0.60;;
15651;SDS011;7926;43.576;1.458;2022-08-21T00:07:31;0.60;;;0.60;;
15651;SDS011;7926;43.576;1.458;2022-08-21T00:09:58;0.60;;;0.60;;
15651;SDS011;7926;43.576;1.458;2022-08-21T00:12:27;0.60;;;0.60;;
15651;SDS011;7926;43.576;1.458;2022-08-21T00:14:56;0.63;;;0.63;;
15651;SDS011;7926;43.576;1.458;2022-08-21T00:17:23;0.60;;;0.60;;
15651;SDS011;7926;43.576;1.458;2022-08-21T00:19:50;0.60;;;0.60;;
15651;SDS011;7926;43.576;1.458;2022-08-21T00:22:17;0.73;;;0.73;;
15651;SDS011;7926;43.576;1.458;2022-08-21T00:24:45;0.60;;;0.60;;
15651;SDS011;7926;43.576;1.458;2022-08-21T00:27:12;0.70;;;0.70;;
15651;SDS011;7926;43.576;1.458;2022-08-21T00:29:41;0.70;;;0.70;;
15651;SDS011;7926;43.576;1.458;2022-08-21T00:32:08;0.70;;;0.70;;
15651;SDS011;7926;43.576;1.458;2022-08-21T00:34:35;0.70;;;0.70;;
15651;SDS011;7926;43.576;1.458;2022-08-21T00:37:03;0.70;;;0.70;;
15651;SDS011;7926;43.576;1.458;2022-08-21T00:39:30;0.70;;;0.70;;
15651;SDS011;7926;43.576;1.458;2022-08-21T00:41:57;0.70;;;0.70;;
15651;SDS011;7926;43.576;1.458;2022-08-21T00:44:25;0.70;;;0.70;;
15651;SDS011;7926;43.576;1.458;2022-08-21T00:46:53;0.70;;;0.70;;
15651;SDS011;7926;43.576;1.458;2022-08-21T00:49:22;0.60;;;0.60;;
15651;SDS011;7926;43.576;1.458;2022-08-21T00:51:50;0.65;;;0.65;;
15651;SDS011;7926;43.576;1.458;2022-08-21T00:54:19;0.68;;;0.68;;
15651;SDS011;7926;43.576;1.458;2022-08-21T00:56:48;0.70;;;0.70;;
15651;SDS011;7926;43.576;1.458;2022-08-21T00:59:16;0.70;;;0.70;;
15651;SDS011;7926;43.576;1.458;2022-08-21T01:01:45;0.70;;;0.70;;
15651;SDS011;7926;43.576;1.458;2022-08-21T01:04:14;0.60;;;0.60;;
15651;SDS011;7926;43.576;1.458;2022-08-21T01:06:42;0.70;;;0.70;;
15651;SDS011;7926;43.576;1.458;2022-08-21T01:09:09;0.60;;;0.60;;
15651;SDS011;7926;43.576;1.458;2022-08-21T01:11:36;0.70;;;0.70;;
15651;SDS011;7926;43.576;1.458;2022-08-21T01:14:04;0.60;;;0.60;;
15651;SDS011;7926;43.576;1.458;2022-08-21T01:16:31;0.70;;;0.70;;
15651;SDS011;7926;43.576;1.458;2022-08-21T01:18:59;0.60;;;0.60;;
15651;SDS011;7926;43.576;1.458;2022-08-21T01:21:28;0.60;;;0.60;;
15651;SDS011;7926;43.576;1.458;2022-08-21T01:23:56;0.60;;;0.60;;
15651;SDS011;7926;43.576;1.458;2022-08-21T01:26:25;0.60;;;0.60;;
15651;SDS011;7926;43.576;1.458;2022-08-21T01:28:54;0.60;;;0.60;;
15651;SDS011;7926;43.576;1.458;2022-08-21T01:31:25;0.60;;;0.60;;
15651;SDS011;7926;43.576;1.458;2022-08-21T01:33:52;0.50;;;0.50;;
15651;SDS011;7926;43.576;1.458;2022-08-21T01:36:20;0.60;;;0.60;;
15651;SDS011;7926;43.576;1.458;2022-08-21T01:38:49;0.60;;;0.60;;
15651;SDS011;7926;43.576;1.458;2022-08-21T01:41:16;0.60;;;0.60;;
15651;SDS011;7926;43.576;1.458;2022-08-21T01:43:44;0.60;;;0.60;;
15651;SDS011;7926;43.576;1.458;2022-08-21T01:46:12;0.70;;;0.70;;
15651;SDS011;7926;43.576;1.458;2022-08-21T01:48:39;0.60;;;0.60;;
15651;SDS011;7926;43.576;1.458;2022-08-21T01:51:06;0.60;;;0.60;;
15651;SDS011;7926;43.576;1.458;2022-08-21T01:53:35;0.60;;;0.60;;
15651;SDS011;7926;43.576;1.458;2022-08-21T01:56:05;0.60;;;0.60;;
15651;SDS011;7926;43.576;1.458;2022-08-21T01:58:32;0.60;;;0.60;;
15651;SDS011;7926;43.576;1.458;2022-08-21T02:01:00;0.60;;;0.60;;
15651;SDS011;7926;43.576;1.458;2022-08-21T02:03:27;0.60;;;0.60;;
15651;SDS011;7926;43.576;1.458;2022-08-21T02:05:55;0.60;;;0.60;;
15651;SDS011;7926;43.576;1.458;2022-08-21T02:08:23;0.53;;;0.53;;
15651;SDS011;7926;43.576;1.458;2022-08-21T02:10:50;0.60;;;0.60;;
15651;SDS011;7926;43.576;1.458;2022-08-21T02:13:20;0.60;;;0.60;;
15651;SDS011;7926;43.576;1.458;2022-08-21T02:15:47;0.53;;;0.53;;
15651;SDS011;7926;43.576;1.458;2022-08-21T02:18:14;0.60;;;0.60;;
15651;SDS011;7926;43.576;1.458;2022-08-21T02:20:43;0.60;;;0.60;;
15651;SDS011;7926;43.576;1.458;2022-08-21T02:23:11;0.60;;;0.60;;
15651;SDS011;7926;43.576;1.458;2022-08-21T02:25:39;0.60;;;0.60;;
15651;SDS011;7926;43.576;1.458;2022-08-21T02:28:08;0.60;;;0.60;;
15651;SDS011;7926;43.576;1.458;2022-08-21T02:30:39;0.60;;;0.60;;
15651;SDS011;7926;43.576;1.458;2022-08-21T02:33:07;0.60;;;0.60;;
15651;SDS011;7926;43.576;1.458;2022-08-21T02:35:36;0.63;;;0.63;;
15651;SDS011;7926;43.576;1.458;2022-08-21T02:38:04;0.60;;;0.60;;
15651;SDS011;7926;43.576;1.458;2022-08-21T02:40:32;0.60;;;0.60;;
15651;SDS011;7926;43.576;1.458;2022-08-21T02:43:00;0.60;;;0.60;;
15651;SDS011;7926;43.576;1.458;2022-08-21T02:45:28;0.70;;;0.70;;
15651;SDS011;7926;43.576;1.458;2022-08-21T02:47:57;0.80;;;0.80;;
15651;SDS011;7926;43.576;1.458;2022-08-21T02:50:26;0.80;;;0.80;;
15651;SDS011;7926;43.576;1.458;2022-08-21T02:52:54;0.80;;;0.80;;
15651;SDS011;7926;43.576;1.458;2022-08-21T02:55:22;0.80;;;0.80;;
15651;SDS011;7926;43.576;1.458;2022-08-21T02:57:51;0.80;;;0.80;;
15651;SDS011;7926;43.576;1.458;2022-08-21T03:00:19;0.80;;;0.80;;
15651;SDS011;7926;43.576;1.458;2022-08-21T03:02:47;0.70;;;0.70;;
15651;SDS011;7926;43.576;1.458;2022-08-21T03:05:16;0.80;;;0.80;;
15651;SDS011;7926;43.576;1.458;2022-08-21T03:07:44;0.70;;;0.70;;
15651;SDS011;7926;43.576;1.458;2022-08-21T03:10:12;0.70;;;0.70;;
15651;SDS011;7926;43.576;1.458;2022-08-21T03:12:40;0.80;;;0.80;;
15651;SDS011;7926;43.576;1.458;2022-08-21T03:15:08;0.70;;;0.70;;
15651;SDS011;7926;43.576;1.458;2022-08-21T03:17:37;0.77;;;0.77;;
15651;SDS011;7926;43.576;1.458;2022-08-21T03:20:04;0.80;;;0.80;;
15651;SDS011;7926;43.576;1.458;2022-08-21T03:22:33;0.70;;;0.70;;
15651;SDS011;7926;43.576;1.458;2022-08-21T03:25:01;0.70;;;0.70;;
15651;SDS011;7926;43.576;1.458;2022-08-21T03:27:29;0.70;;;0.70;;
15651;SDS011;7926;43.576;1.458;2022-08-21T03:29:56;0.70;;;0.70;;
15651;SDS011;7926;43.576;1.458;2022-08-21T03:32:24;0.70;;;0.70;;
15651;SDS011;7926;43.576;1.458;2022-08-21T03:34:51;0.70;;;0.70;;
15651;SDS011;7926;43.576;1.458;2022-08-21T03:37:19;0.80;;;0.80;;
15651;SDS011;7926;43.576;1.458;2022-08-21T03:39:47;0.70;;;0.70;;
15651;SDS011;7926;43.576;1.458;2022-08-21T03:42:15;0.60;;;0.60;;
15651;SDS011;7926;43.576;1.458;2022-08-21T03:44:42;0.70;;;0.70;;
15651;SDS011;7926;43.576;1.458;2022-08-21T03:47:09;0.70;;;0.70;;
15651;SDS011;7926;43.576;1.458;2022-08-21T03:49:37;0.70;;;0.70;;
15651;SDS011;7926;43.576;1.458;2022-08-21T03:52:04;0.70;;;0.70;;
15651;SDS011;7926;43.576;1.458;2022-08-21T03:54:32;0.60;;;0.60;;
15651;SDS011;7926;43.576;1.458;2022-08-21T03:57:01;0.70;;;0.70;;
15651;SDS011;7926;43.576;1.458;2022-08-21T03:59:28;0.70;;;0.70;;
15651;SDS011;7926;43.576;1.458;2022-08-21T04:01:56;0.80;;;0.80;;
15651;SDS011;7926;43.576;1.458;2022-08-21T04:04:24;0.70;;;0.70;;
15651;SDS011;7926;43.576;1.458;2022-08-21T04:06:52;0.80;;;0.80;;
15651;SDS011;7926;43.576;1.458;2022-08-21T04:09:19;0.70;;;0.70;;
15651;SDS011;7926;43.576;1.458;2022-08-21T04:11:47;0.70;;;0.70;;
15651;SDS011;7926;43.576;1.458;2022-08-21T04:14:16;0.70;;;0.70;;
15651;SDS011;7926;43.576;1.458;2022-08-21T04:16:44;0.70;;;0.70;;
15651;SDS011;7926;43.576;1.458;2022-08-21T04:19:11;0.80;;;0.80;;
15651;SDS011;7926;43.576;1.458;2022-08-21T04:21:39;0.70;;;0.70;;
15651;SDS011;7926;43.576;1.458;2022-08-21T04:24:08;0.80;;;0.80;;
15651;SDS011;7926;43.576;1.458;2022-08-21T04:26:36;0.70;;;0.70;;
15651;SDS011;7926;43.576;1.458;2022-08-21T04:29:04;0.70;;;0.70;;
15651;SDS011;7926;43.576;1.458;2022-08-21T04:31:33;0.70;;;0.70;;
15651;SDS011;7926;43.576;1.458;2022-08-21T04:34:02;0.70;;;0.70;;
15651;SDS011;7926;43.576;1.458;2022-08-21T04:36:29;0.70;;;0.70;;
15651;SDS011;7926;43.576;1.458;2022-08-21T04:38:57;0.70;;;0.70;;
15651;SDS011;7926;43.576;1.458;2022-08-21T04:41:24;0.70;;;0.70;;
15651;SDS011;7926;43.576;1.458;2022-08-21T04:43:52;0.70;;;0.70;;
15651;SDS011;7926;43.576;1.458;2022-08-21T04:46:20;0.70;;;0.70;;
15651;SDS011;7926;43.576;1.458;2022-08-21T04:48:49;0.70;;;0.70;;
15651;SDS011;7926;43.576;1.458;2022-08-21T04:51:17;0.70;;;0.70;;
15651;SDS011;7926;43.576;1.458;2022-08-21T04:53:46;0.50;;;0.50;;
15651;SDS011;7926;43.576;1.458;2022-08-21T04:56:15;0.60;;;0.60;;
15651;SDS011;7926;43.576;1.458;2022-08-21T04:58:47;0.60;;;0.60;;
15651;SDS011;7926;43.576;1.458;2022-08-21T05:01:15;0.60;;;0.60;;
15651;SDS011;7926;43.576;1.458;2022-08-21T05:03:44;0.60;;;0.60;;
15651;SDS011;7926;43.576;1.458;2022-08-21T05:06:13;0.60;;;0.60;;
15651;SDS011;7926;43.576;1.458;2022-08-21T05:08:42;0.60;;;0.60;;
15651;SDS011;7926;43.576;1.458;2022-08-21T05:11:10;0.60;;;0.60;;
15651;SDS011;7926;43.576;1.458;2022-08-21T05:13:38;0.60;;;0.60;;
15651;SDS011;7926;43.576;1.458;2022-08-21T05:16:06;0.60;;;0.60;;
15651;SDS011;7926;43.576;1.458;2022-08-21T05:18:34;0.50;;;0.50;;
15651;SDS011;7926;43.576;1.458;2022-08-21T05:21:01;0.50;;;0.50;;
15651;SDS011;7926;43.576;1.458;2022-08-21T05:23:30;0.53;;;0.53;;
15651;SDS011;7926;43.576;1.458;2022-08-21T05:25:58;0.60;;;0.60;;
15651;SDS011;7926;43.576;1.458;2022-08-21T05:28:26;0.50;;;0.50;;
15651;SDS011;7926;43.576;1.458;2022-08-21T05:30:53;0.60;;;0.60;;
15651;SDS011;7926;43.576;1.458;2022-08-21T05:33:20;0.50;;;0.50;;
15651;SDS011;7926;43.576;1.458;2022-08-21T05:35:49;0.50;;;0.50;;
15651;SDS011;7926;43.576;1.458;2022-08-21T05:38:17;0.50;;;0.50;;
15651;SDS011;7926;43.576;1.458;2022-08-21T05:40:45;0.50;;;0.50;;
15651;SDS011;7926;43.576;1.458;2022-08-21T05:43:13;0.50;;;0.50;;
15651;SDS011;7926;43.576;1.458;2022-08-21T05:45:40;0.50;;;0.50;;
15651;SDS011;7926;43.576;1.458;2022-08-21T05:48:08;0.50;;;0.50;;
15651;SDS011;7926;43.576;1.458;2022-08-21T05:50:35;0.50;;;0.50;;
15651;SDS011;7926;43.576;1.458;2022-08-21T05:53:03;0.50;;;0.50;;
15651;SDS011;7926;43.576;1.458;2022-08-21T05:55:30;0.50;;;0.50;;
15651;SDS011;7926;43.576;1.458;2022-08-21T05:57:59;0.50;;;0.50;;
15651;SDS011;7926;43.576;1.458;2022-08-21T06:00:26;0.50;;;0.50;;
15651;SDS011;7926;43.576;1.458;2022-08-21T06:02:55;0.60;;;0.60;;
15651;SDS011;7926;43.576;1.458;2022-08-21T06:05:23;0.50;;;0.50;;
15651;SDS011;7926;43.576;1.458;2022-08-21T06:07:51;0.50;;;0.50;;
15651;SDS011;7926;43.576;1.458;2022-08-21T06:10:18;0.50;;;0.50;;
15651;SDS011;7926;43.576;1.458;2022-08-21T06:12:45;0.60;;;0.60;;
15651;SDS011;7926;43.576;1.458;2022-08-21T06:15:14;0.50;;;0.50;;
15651;SDS011;7926;43.576;1.458;2022-08-21T06:17:41;0.50;;;0.50;;
15651;SDS011;7926;43.576;1.458;2022-08-21T06:20:09;0.40;;;0.40;;
15651;SDS011;7926;43.576;1.458;2022-08-21T06:22:36;0.50;;;0.50;;
15651;SDS011;7926;43.576;1.458;2022-08-21T06:25:04;0.40;;;0.40;;
15651;SDS011;7926;43.576;1.458;2022-08-21T06:27:32;0.50;;;0.50;;
15651;SDS011;7926;43.576;1.458;2022-08-21T06:29:59;0.50;;;0.50;;
15651;SDS011;7926;43.576;1.458;2022-08-21T06:32:27;0.50;;;0.50;;
15651;SDS011;7926;43.576;1.458;2022-08-21T06:34:55;0.50;;;0.50;;
15651;SDS011;7926;43.576;1.458;2022-08-21T06:37:22;0.50;;;0.50;;
15651;SDS011;7926;43.576;1.458;2022-08-21T06:39:49;0.50;;;0.50;;
15651;SDS011;7926;43.576;1.458;2022-08-21T06:42:17;0.50;;;0.50;;
15651;SDS011;7926;43.576;1.458;2022-08-21T06:44:44;0.50;;;0.50;;
15651;SDS011;7926;43.576;1.458;2022-08-21T06:47:12;0.60;;;0.60;;
15651;SDS011;7926;43.576;1.458;2022-08-21T06:49:41;0.50;;;0.50;;
15651;SDS011;7926;43.576;1.458;2022-08-21T06:52:08;0.50;;;0.50;;
15651;SDS011;7926;43.576;1.458;2022-08-21T06:54:36;0.50;;;0.50;;
15651;SDS011;7926;43.576;1.458;2022-08-21T06:57:03;0.50;;;0.50;;
15651;SDS011;7926;43.576;1.458;2022-08-21T06:59:30;0.50;;;0.50;;
15651;SDS011;7926;43.576;1.458;2022-08-21T07:01:58;0.50;;;0.50;;
15651;SDS011;7926;43.576;1.458;2022-08-21T07:04:25;0.50;;;0.50;;
15651;SDS011;7926;43.576;1.458;2022-08-21T07:06:54;0.50;;;0.50;;
15651;SDS011;7926;43.576;1.458;2022-08-21T07:09:21;0.50;;;0.50;;
15651;SDS011;7926;43.576;1.458;2022-08-21T07:11:49;0.50;;;0.50;;
15651;SDS011;7926;43.576;1.458;2022-08-21T07:14:17;0.57;;;0.57;;
15651;SDS011;7926;43.576;1.458;2022-08-21T07:16:44;0.50;;;0.50;;
15651;SDS011;7926;43.576;1.458;2022-08-21T07:19:12;0.60;;;0.60;;
15651;SDS011;7926;43.576;1.458;2022-08-21T07:21:39;0.60;;;0.60;;
15651;SDS011;7926;43.576;1.458;2022-08-21T07:24:08;0.60;;;0.60;;
15651;SDS011;7926;43.576;1.458;2022-08-21T07:26:35;0.53;;;0.53;;
15651;SDS011;7926;43.576;1.458;2022-08-21T07:29:02;0.53;;;0.53;;
15651;SDS011;7926;43.576;1.458;2022-08-21T07:31:30;0.57;;;0.57;;
15651;SDS011;7926;43.576;1.458;2022-08-21T07:33:58;0.60;;;0.60;;
15651;SDS011;7926;43.576;1.458;2022-08-21T07:36:25;0.60;;;0.60;;
15651;SDS011;7926;43.576;1.458;2022-08-21T07:38:52;0.60;;;0.60;;
15651;SDS011;7926;43.576;1.458;2022-08-21T07:41:22;0.60;;;0.60;;
15651;SDS011;7926;43.576;1.458;2022-08-21T07:43:49;0.50;;;0.50;;
15651;SDS011;7926;43.576;1.458;2022-08-21T07:46:17;0.60;;;0.60;;
15651;SDS011;7926;43.576;1.458;2022-08-21T07:48:44;0.50;;;0.50;;
15651;SDS011;7926;43.576;1.458;2022-08-21T07:51:12;0.50;;;0.50;;
15651;SDS011;7926;43.576;1.458;2022-08-21T07:53:40;0.50;;;0.50;;
15651;SDS011;7926;43.576;1.458;2022-08-21T07:56:08;0.60;;;0.60;;
15651;SDS011;7926;43.576;1.458;2022-08-21T07:58:37;0.50;;;0.50;;
15651;SDS011;7926;43.576;1.458;2022-08-21T08:01:05;0.50;;;0.50;;
15651;SDS011;7926;43.576;1.458;2022-08-21T08:03:32;0.50;;;0.50;;
15651;SDS011;7926;43.576;1.458;2022-08-21T08:06:02;0.50;;;0.50;;
15651;SDS011;7926;43.576;1.458;2022-08-21T08:08:30;0.50;;;0.50;;
15651;SDS011;7926;43.576;1.458;2022-08-21T08:10:57;0.50;;;0.50;;
15651;SDS011;7926;43.576;1.458;2022-08-21T08:13:25;0.50;;;0.50;;
15651;SDS011;7926;43.576;1.458;2022-08-21T08:15:54;0.50;;;0.50;;
15651;SDS011;7926;43.576;1.458;2022-08-21T08:18:21;0.50;;;0.50;;
15651;SDS011;7926;43.576;1.458;2022-08-21T08:20:48;0.50;;;0.50;;
15651;SDS011;7926;43.576;1.458;2022-08-21T08:23:15;0.50;;;0.50;;
15651;SDS011;7926;43.576;1.458;2022-08-21T08:25:43;0.60;;;0.60;;
15651;SDS011;7926;43.576;1.458;2022-08-21T08:28:10;0.60;;;0.60;;
15651;SDS011;7926;43.576;1.458;2022-08-21T08:30:37;0.60;;;0.60;;
15651;SDS011;7926;43.576;1.458;2022-08-21T08:33:06;0.60;;;0.60;;
15651;SDS011;7926;43.576;1.458;2022-08-21T08:35:33;0.60;;;0.60;;
15651;SDS011;7926;43.576;1.458;2022-08-21T08:38:01;0.60;;;0.60;;
15651;SDS011;7926;43.576;1.458;2022-08-21T08:40:32;0.60;;;0.60;;
15651;SDS011;7926;43.576;1.458;2022-08-21T08:43:02;0.60;;;0.60;;
15651;SDS011;7926;43.576;1.458;2022-08-21T08:45:30;0.60;;;0.60;;
15651;SDS011;7926;43.576;1.458;2022-08-21T08:48:00;0.60;;;0.60;;
15651;SDS011;7926;43.576;1.458;2022-08-21T08:50:32;0.57;;;0.57;;
15651;SDS011;7926;43.576;1.458;2022-08-21T08:53:02;0.60;;;0.60;;
15651;SDS011;7926;43.576;1.458;2022-08-21T08:55:32;0.60;;;0.60;;
15651;SDS011;7926;43.576;1.458;2022-08-21T08:58:00;0.60;;;0.60;;
15651;SDS011;7926;43.576;1.458;2022-08-21T09:00:28;0.70;;;0.70;;
15651;SDS011;7926;43.576;1.458;2022-08-21T09:02:57;0.60;;;0.60;;
15651;SDS011;7926;43.576;1.458;2022-08-21T09:05:26;0.60;;;0.60;;
15651;SDS011;7926;43.576;1.458;2022-08-21T09:08:00;0.60;;;0.60;;
15651;SDS011;7926;43.576;1.458;2022-08-21T09:10:37;0.60;;;0.60;;
15651;SDS011;7926;43.576;1.458;2022-08-21T09:13:09;0.60;;;0.60;;
15651;SDS011;7926;43.576;1.458;2022-08-21T09:15:40;0.50;;;0.50;;
15651;SDS011;7926;43.576;1.458;2022-08-21T09:18:16;0.60;;;0.60;;
15651;SDS011;7926;43.576;1.458;2022-08-21T09:20:55;0.50;;;0.50;;
15651;SDS011;7926;43.576;1.458;2022-08-21T09:23:30;0.60;;;0.60;;
15651;SDS011;7926;43.576;1.458;2022-08-21T09:26:02;0.65;;;0.65;;
15651;SDS011;7926;43.576;1.458;2022-08-21T09:28:31;0.60;;;0.60;;
15651;SDS011;7926;43.576;1.458;2022-08-21T09:30:59;0.60;;;0.60;;
15651;SDS011;7926;43.576;1.458;2022-08-21T09:33:28;0.60;;;0.60;;
15651;SDS011;7926;43.576;1.458;2022-08-21T09:35:56;0.60;;;0.60;;
15651;SDS011;7926;43.576;1.458;2022-08-21T09:38:25;0.70;;;0.70;;
15651;SDS011;7926;43.576;1.458;2022-08-21T09:40:57;0.60;;;0.60;;
15651;SDS011;7926;43.576;1.458;2022-08-21T09:43:25;0.63;;;0.63;;
15651;SDS011;7926;43.576;1.458;2022-08-21T09:46:01;0.70;;;0.70;;
15651;SDS011;7926;43.576;1.458;2022-08-21T09:48:29;0.80;;;0.80;;
15651;SDS011;7926;43.576;1.458;2022-08-21T09:51:05;0.70;;;0.70;;
15651;SDS011;7926;43.576;1.458;2022-08-21T09:53:33;0.68;;;0.68;;
15651;SDS011;7926;43.576;1.458;2022-08-21T09:56:03;0.68;;;0.68;;
15651;SDS011;7926;43.576;1.458;2022-08-21T09:58:56;0.60;;;0.60;;
15651;SDS011;7926;43.576;1.458;2022-08-21T10:01:24;0.60;;;0.60;;
15651;SDS011;7926;43.576;1.458;2022-08-21T10:04:01;0.60;;;0.60;;
15651;SDS011;7926;43.576;1.458;2022-08-21T10:06:29;0.70;;;0.70;;
15651;SDS011;7926;43.576;1.458;2022-08-21T10:09:03;0.70;;;0.70;;
15651;SDS011;7926;43.576;1.458;2022-08-21T10:11:33;0.75;;;0.75;;
15651;SDS011;7926;43.576;1.458;2022-08-21T10:14:03;0.70;;;0.70;;
15651;SDS011;7926;43.576;1.458;2022-08-21T10:16:34;0.70;;;0.70;;
15651;SDS011;7926;43.576;1.458;2022-08-21T10:19:10;0.70;;;0.70;;
15651;SDS011;7926;43.576;1.458;2022-08-21T10:21:41;0.75;;;0.75;;
15651;SDS011;7926;43.576;1.458;2022-08-21T10:24:11;0.70;;;0.70;;
15651;SDS011;7926;43.576;1.458;2022-08-21T10:26:55;0.80;;;0.80;;
15651;SDS011;7926;43.576;1.458;2022-08-21T10:29:29;0.70;;;0.70;;
15651;SDS011;7926;43.576;1.458;2022-08-21T10:32:02;0.80;;;0.80;;
15651;SDS011;7926;43.576;1.458;2022-08-21T10:34:35;0.80;;;0.80;;
15651;SDS011;7926;43.576;1.458;2022-08-21T10:37:11;0.75;;;0.75;;
15651;SDS011;7926;43.576;1.458;2022-08-21T10:39:44;0.80;;;0.80;;
15651;SDS011;7926;43.576;1.458;2022-08-21T10:42:17;0.80;;;0.80;;
15651;SDS011;7926;43.576;1.458;2022-08-21T10:44:49;0.80;;;0.80;;
15651;SDS011;7926;43.576;1.458;2022-08-21T10:47:21;0.80;;;0.80;;
15651;SDS011;7926;43.576;1.458;2022-08-21T10:49:52;0.75;;;0.75;;
15651;SDS011;7926;43.576;1.458;2022-08-21T10:52:28;0.80;;;0.80;;
15651;SDS011;7926;43.576;1.458;2022-08-21T10:55:00;0.90;;;0.90;;
15651;SDS011;7926;43.576;1.458;2022-08-21T10:57:32;0.80;;;0.80;;
15651;SDS011;7926;43.576;1.458;2022-08-21T11:00:03;0.80;;;0.80;;
15651;SDS011;7926;43.576;1.458;2022-08-21T11:02:35;0.70;;;0.70;;
15651;SDS011;7926;43.576;1.458;2022-08-21T11:05:05;0.70;;;0.70;;
15651;SDS011;7926;43.576;1.458;2022-08-21T11:07:35;0.68;;;0.68;;
15651;SDS011;7926;43.576;1.458;2022-08-21T11:10:04;0.70;;;0.70;;
15651;SDS011;7926;43.576;1.458;2022-08-21T11:12:35;0.70;;;0.70;;
15651;SDS011;7926;43.576;1.458;2022-08-21T11:15:07;0.90;;;0.90;;
15651;SDS011;7926;43.576;1.458;2022-08-21T11:17:39;0.75;;;0.75;;
15651;SDS011;7926;43.576;1.458;2022-08-21T11:20:12;0.80;;;0.80;;
15651;SDS011;7926;43.576;1.458;2022-08-21T11:22:43;0.90;;;0.90;;
15651;SDS011;7926;43.576;1.458;2022-08-21T11:25:14;0.80;;;0.80;;
15651;SDS011;7926;43.576;1.458;2022-08-21T11:27:46;0.70;;;0.70;;
15651;SDS011;7926;43.576;1.458;2022-08-21T11:30:16;0.70;;;0.70;;
15651;SDS011;7926;43.576;1.458;2022-08-21T11:32:49;0.90;;;0.90;;
15651;SDS011;7926;43.576;1.458;2022-08-21T11:35:35;0.70;;;0.70;;
15651;SDS011;7926;43.576;1.458;2022-08-21T11:38:10;0.70;;;0.70;;
15651;SDS011;7926;43.576;1.458;2022-08-21T11:40:44;0.70;;;0.70;;
15651;SDS011;7926;43.576;1.458;2022-08-21T11:43:19;0.70;;;0.70;;
15651;SDS011;7926;43.576;1.458;2022-08-21T11:45:49;0.80;;;0.80;;
15651;SDS011;7926;43.576;1.458;2022-08-21T11:48:21;1.00;;;1.00;;
15651;SDS011;7926;43.576;1.458;2022-08-21T11:50:51;0.80;;;0.80;;
15651;SDS011;7926;43.576;1.458;2022-08-21T11:53:20;0.90;;;0.90;;
15651;SDS011;7926;43.576;1.458;2022-08-21T11:55:50;1.00;;;1.00;;
15651;SDS011;7926;43.576;1.458;2022-08-21T11:58:22;0.90;;;0.90;;
15651;SDS011;7926;43.576;1.458;2022-08-21T12:00:52;1.00;;;1.00;;
15651;SDS011;7926;43.576;1.458;2022-08-21T12:03:22;0.90;;;0.90;;
15651;SDS011;7926;43.576;1.458;2022-08-21T12:05:52;0.90;;;0.90;;
15651;SDS011;7926;43.576;1.458;2022-08-21T12:08:26;0.90;;;0.90;;
15651;SDS011;7926;43.576;1.458;2022-08-21T12:10:59;1.00;;;1.00;;
15651;SDS011;7926;43.576;1.458;2022-08-21T12:13:30;0.93;;;0.93;;
15651;SDS011;7926;43.576;1.458;2022-08-21T12:16:04;1.00;;;1.00;;
15651;SDS011;7926;43.576;1.458;2022-08-21T12:18:32;1.05;;;1.05;;
15651;SDS011;7926;43.576;1.458;2022-08-21T12:21:01;1.00;;;1.00;;
15651;SDS011;7926;43.576;1.458;2022-08-21T12:23:30;1.00;;;1.00;;
15651;SDS011;7926;43.576;1.458;2022-08-21T12:26:00;1.00;;;1.00;;
15651;SDS011;7926;43.576;1.458;2022-08-21T12:28:29;1.00;;;1.00;;
15651;SDS011;7926;43.576;1.458;2022-08-21T12:30:57;1.00;;;1.00;;
15651;SDS011;7926;43.576;1.458;2022-08-21T12:33:26;1.00;;;1.00;;
15651;SDS011;7926;43.576;1.458;2022-08-21T12:36:01;1.00;;;1.00;;
15651;SDS011;7926;43.576;1.458;2022-08-21T12:38:32;1.00;;;1.00;;
15651;SDS011;7926;43.576;1.458;2022-08-21T12:41:00;0.82;;;0.82;;
15651;SDS011;7926;43.576;1.458;2022-08-21T12:43:32;1.00;;;1.00;;
15651;SDS011;7926;43.576;1.458;2022-08-21T12:46:00;1.00;;;1.00;;
15651;SDS011;7926;43.576;1.458;2022-08-21T12:48:31;1.00;;;1.00;;
15651;SDS011;7926;43.576;1.458;2022-08-21T12:51:05;1.00;;;1.00;;
15651;SDS011;7926;43.576;1.458;2022-08-21T12:53:35;1.00;;;1.00;;
15651;SDS011;7926;43.576;1.458;2022-08-21T12:56:03;0.90;;;0.90;;
15651;SDS011;7926;43.576;1.458;2022-08-21T12:58:32;1.00;;;1.00;;
15651;SDS011;7926;43.576;1.458;2022-08-21T13:01:01;1.00;;;1.00;;
15651;SDS011;7926;43.576;1.458;2022-08-21T13:03:29;1.00;;;1.00;;
15651;SDS011;7926;43.576;1.458;2022-08-21T13:05:57;1.00;;;1.00;;
15651;SDS011;7926;43.576;1.458;2022-08-21T13:08:25;1.10;;;1.10;;
15651;SDS011;7926;43.576;1.458;2022-08-21T13:10:56;0.93;;;0.93;;
15651;SDS011;7926;43.576;1.458;2022-08-21T13:13:25;1.00;;;1.00;;
15651;SDS011;7926;43.576;1.458;2022-08-21T13:15:57;1.00;;;1.00;;
15651;SDS011;7926;43.576;1.458;2022-08-21T13:18:26;1.00;;;1.00;;
15651;SDS011;7926;43.576;1.458;2022-08-21T13:21:02;1.00;;;1.00;;
15651;SDS011;7926;43.576;1.458;2022-08-21T13:23:30;1.00;;;1.00;;
15651;SDS011;7926;43.576;1.458;2022-08-21T13:25:57;1.00;;;1.00;;
15651;SDS011;7926;43.576;1.458;2022-08-21T13:28:31;0.95;;;0.95;;
15651;SDS011;7926;43.576;1.458;2022-08-21T13:31:01;0.90;;;0.90;;
15651;SDS011;7926;43.576;1.458;2022-08-21T13:33:29;1.00;;;1.00;;
15651;SDS011;7926;43.576;1.458;2022-08-21T13:36:00;1.10;;;1.10;;
15651;SDS011;7926;43.576;1.458;2022-08-21T13:38:30;1.10;;;1.10;;
15651;SDS011;7926;43.576;1.458;2022-08-21T13:40:59;1.00;;;1.00;;
15651;SDS011;7926;43.576;1.458;2022-08-21T13:43:31;1.10;;;1.10;;
15651;SDS011;7926;43.576;1.458;2022-08-21T13:45:58;1.00;;;1.00;;
15651;SDS011;7926;43.576;1.458;2022-08-21T13:48:28;1.02;;;1.02;;
15651;SDS011;7926;43.576;1.458;2022-08-21T13:50:57;1.00;;;1.00;;
15651;SDS011;7926;43.576;1.458;2022-08-21T13:53:27;1.02;;;1.02;;
15651;SDS011;7926;43.576;1.458;2022-08-21T13:55:55;1.00;;;1.00;;
15651;SDS011;7926;43.576;1.458;2022-08-21T13:58:26;1.10;;;1.10;;
15651;SDS011;7926;43.576;1.458;2022-08-21T14:00:54;1.10;;;1.10;;
15651;SDS011;7926;43.576;1.458;2022-08-21T14:03:29;1.00;;;1.00;;
15651;SDS011;7926;43.576;1.458;2022-08-21T14:05:58;1.00;;;1.00;;
15651;SDS011;7926;43.576;1.458;2022-08-21T14:08:26;1.00;;;1.00;;
15651;SDS011;7926;43.576;1.458;2022-08-21T14:10:55;0.90;;;0.90;;
15651;SDS011;7926;43.576;1.458;2022-08-21T14:13:26;1.00;;;1.00;;
15651;SDS011;7926;43.576;1.458;2022-08-21T14:15:54;1.00;;;1.00;;
15651;SDS011;7926;43.576;1.458;2022-08-21T14:18:22;1.17;;;1.17;;
15651;SDS011;7926;43.576;1.458;2022-08-21T14:21:04;0.95;;;0.95;;
15651;SDS011;7926;43.576;1.458;2022-08-21T14:23:32;1.00;;;1.00;;
15651;SDS011;7926;43.576;1.458;2022-08-21T14:26:00;0.90;;;0.90;;
15651;SDS011;7926;43.576;1.458;2022-08-21T14:28:28;1.10;;;1.10;;
15651;SDS011;7926;43.576;1.458;2022-08-21T14:30:58;0.90;;;0.90;;
15651;SDS011;7926;43.576;1.458;2022-08-21T14:33:26;1.00;;;1.00;;
15651;SDS011;7926;43.576;1.458;2022-08-21T14:35:54;1.00;;;1.00;;
15651;SDS011;7926;43.576;1.458;2022-08-21T14:38:24;0.95;;;0.95;;
15651;SDS011;7926;43.576;1.458;2022-08-21T14:40:55;1.00;;;1.00;;
15651;SDS011;7926;43.576;1.458;2022-08-21T14:43:23;1.00;;;1.00;;
15651;SDS011;7926;43.576;1.458;2022-08-21T14:45:52;1.00;;;1.00;;
15651;SDS011;7926;43.576;1.458;2022-08-21T14:48:19;1.10;;;1.10;;
15651;SDS011;7926;43.576;1.458;2022-08-21T14:50:47;1.00;;;1.00;;
15651;SDS011;7926;43.576;1.458;2022-08-21T14:53:14;0.95;;;0.95;;
15651;SDS011;7926;43.576;1.458;2022-08-21T14:55:43;0.90;;;0.90;;
15651;SDS011;7926;43.576;1.458;2022-08-21T14:58:28;0.90;;;0.90;;
15651;SDS011;7926;43.576;1.458;2022-08-21T15:00:55;0.90;;;0.90;;
15651;SDS011;7926;43.576;1.458;2022-08-21T15:03:24;0.80;;;0.80;;
15651;SDS011;7926;43.576;1.458;2022-08-21T15:05:51;0.80;;;0.80;;
15651;SDS011;7926;43.576;1.458;2022-08-21T15:08:19;1.00;;;1.00;;
15651;SDS011;7926;43.576;1.458;2022-08-21T15:10:47;0.90;;;0.90;;